sensor_id;sensor_type;location;lat;lon;timestamp;pressure;altitude;pressure_sealevel;temperature;humidity
4836;BME280;66719;51.226;6.902;2024-03-23T00:53:38;100217.13;;;8.31;100.00
4836;BME280;66719;51.226;6.902;2024-03-23T00:56:03;100209.53;;;8.19;100.00
4836;BME280;66719;51.226;6.902;2024-03-23T00:58:30;100212.84;;;8.27;100.00
4836;BME280;66719;51.226;6.902;2024-03-23T01:00:56;100211.13;;;8.28;100.00
4836;BME280;66719;51.226;6.902;2024-03-23T01:03:21;100203.47;;;8.15;100.00
4836;BME280;66719;51.226;6.902;2024-03-23T01:05:47;100198.16;;;8.21;100.00
4836;BME280;66719;51.226;6.902;2024-03-23T01:08:14;100202.69;;;8.12;100.00
4836;BME280;66719;51.226;6.902;2024-03-23T01:10:40;100204.91;;;8.36;100.00
4836;BME280;66719;51.226;6.902;2024-03-23T01:13:06;100202.97;;;8.46;100.00
4836;BME280;66719;51.226;6.902;2024-03-23T01:15:31;100199.75;;;8.30;100.00
4836;BME280;66719;51.226;6.902;2024-03-23T01:17:57;100198.91;;;8.30;100.00
4836;BME280;66719;51.226;6.902;2024-03-23T01:20:23;100194.50;;;8.32;100.00
4836;BME280;66719;51.226;6.902;2024-03-23T01:22:48;100196.22;;;8.33;100.00
4836;BME280;66719;51.226;6.902;2024-03-23T01:25:14;100194.34;;;8.44;100.00
4836;BME280;66719;51.226;6.902;2024-03-23T01:27:40;100185.91;;;8.27;100.00
4836;BME280;66719;51.226;6.902;2024-03-23T01:30:06;100195.38;;;8.35;100.00
4836;BME280;66719;51.226;6.902;2024-03-23T01:32:33;100189.25;;;8.33;100.00
4836;BME280;66719;51.226;6.902;2024-03-23T01:34:58;100179.91;;;8.21;100.00
4836;BME280;66719;51.226;6.902;2024-03-23T01:37:24;100188.53;;;8.27;100.00
4836;BME280;66719;51.226;6.902;2024-03-23T01:39:49;100195.31;;;8.37;100.00
4836;BME280;66719;51.226;6.902;2024-03-23T01:42:15;100192.19;;;8.15;100.00
4836;BME280;66719;51.226;6.902;2024-03-23T01:44:44;100181.94;;;8.06;100.00
4836;BME280;66719;51.226;6.902;2024-03-23T01:47:09;100201.25;;;7.94;100.00
4836;BME280;66719;51.226;6.902;2024-03-23T01:49:35;100190.88;;;7.89;100.00
4836;BME280;66719;51.226;6.902;2024-03-23T01:52:02;100189.81;;;8.03;100.00
4836;BME280;66719;51.226;6.902;2024-03-23T01:54:28;100195.00;;;8.04;100.00
4836;BME280;66719;51.226;6.902;2024-03-23T01:56:55;100201.84;;;7.57;100.00
4836;BME280;66719;51.226;6.902;2024-03-23T01:59:21;100205.22;;;7.62;100.00
4836;BME280;66719;51.226;6.902;2024-03-23T02:01:47;100206.94;;;7.63;100.00
4836;BME280;66719;51.226;6.902;2024-03-23T02:04:12;100205.19;;;7.65;100.00
4836;BME280;66719;51.226;6.902;2024-03-23T02:06:38;100194.03;;;7.56;100.00
4836;BME280;66719;51.226;6.902;2024-03-23T02:09:04;100193.06;;;7.61;100.00
4836;BME280;66719;51.226;6.902;2024-03-23T02:11:30;100189.41;;;7.75;100.00
4836;BME280;66719;51.226;6.902;2024-03-23T02:13:56;100180.63;;;7.79;100.00
4836;BME280;66719;51.226;6.902;2024-03-23T02:16:22;100175.59;;;7.68;100.00
4836;BME280;66719;51.226;6.902;2024-03-23T02:18:47;100165.97;;;7.75;100.00
4836;BME280;66719;51.226;6.902;2024-03-23T02:21:13;100168.28;;;7.90;100.00
4836;BME280;66719;51.226;6.902;2024-03-23T02:23:38;100161.31;;;7.92;100.00
4836;BME280;66719;51.226;6.902;2024-03-23T02:26:04;100164.63;;;8.02;100.00
4836;BME280;66719;51.226;6.902;2024-03-23T02:28:30;100158.56;;;8.01;100.00
4836;BME280;66719;51.226;6.902;2024-03-23T02:30:55;100162.03;;;8.02;100.00
4836;BME280;66719;51.226;6.902;2024-03-23T02:33:21;100158.44;;;8.07;100.00
4836;BME280;66719;51.226;6.902;2024-03-23T02:35:47;100153.19;;;8.10;100.00
4836;BME280;66719;51.226;6.902;2024-03-23T02:38:13;100154.03;;;8.11;100.00
4836;BME280;66719;51.226;6.902;2024-03-23T02:40:38;100153.16;;;8.12;100.00
4836;BME280;66719;51.226;6.902;2024-03-23T02:43:04;100163.66;;;8.07;100.00
4836;BME280;66719;51.226;6.902;2024-03-23T02:45:30;100177.53;;;8.08;100.00
4836;BME280;66719;51.226;6.902;2024-03-23T02:47:56;100176.81;;;8.01;100.00
4836;BME280;66719;51.226;6.902;2024-03-23T02:50:22;100181.16;;;7.99;100.00
4836;BME280;66719;51.226;6.902;2024-03-23T02:52:48;100180.50;;;7.88;100.00
4836;BME280;66719;51.226;6.902;2024-03-23T02:55:14;100183.31;;;7.76;100.00
4836;BME280;66719;51.226;6.902;2024-03-23T02:57:40;100173.59;;;7.85;100.00
4836;BME280;66719;51.226;6.902;2024-03-23T03:00:06;100171.75;;;7.92;100.00
4836;BME280;66719;51.226;6.902;2024-03-23T03:02:33;100166.47;;;7.95;100.00
4836;BME280;66719;51.226;6.902;2024-03-23T03:04:59;100175.97;;;7.98;100.00
4836;BME280;66719;51.226;6.902;2024-03-23T03:07:24;100176.69;;;8.09;100.00
4836;BME280;66719;51.226;6.902;2024-03-23T03:09:50;100171.38;;;8.13;100.00
4836;BME280;66719;51.226;6.902;2024-03-23T03:12:15;100170.31;;;8.23;100.00
4836;BME280;66719;51.226;6.902;2024-03-23T03:14:41;100156.63;;;8.12;100.00
4836;BME280;66719;51.226;6.902;2024-03-23T03:17:06;100160.25;;;8.04;100.00
4836;BME280;66719;51.226;6.902;2024-03-23T03:19:32;100155.97;;;8.01;100.00
4836;BME280;66719;51.226;6.902;2024-03-23T03:21:58;100147.28;;;7.99;100.00
4836;BME280;66719;51.226;6.902;2024-03-23T03:24:24;100134.38;;;7.93;100.00
4836;BME280;66719;51.226;6.902;2024-03-23T03:26:49;100141.16;;;8.02;100.00
4836;BME280;66719;51.226;6.902;2024-03-23T03:29:15;100159.47;;;7.97;100.00
4836;BME280;66719;51.226;6.902;2024-03-23T03:31:42;100171.75;;;7.92;100.00
4836;BME280;66719;51.226;6.902;2024-03-23T03:34:08;100157.06;;;7.86;100.00
4836;BME280;66719;51.226;6.902;2024-03-23T03:36:34;100156.13;;;7.92;100.00
4836;BME280;66719;51.226;6.902;2024-03-23T03:38:59;100172.81;;;7.79;100.00
4836;BME280;66719;51.226;6.902;2024-03-23T03:41:25;100164.25;;;7.72;100.00
4836;BME280;66719;51.226;6.902;2024-03-23T03:43:51;100163.50;;;7.65;100.00
4836;BME280;66719;51.226;6.902;2024-03-23T03:46:16;100166.09;;;7.65;100.00
4836;BME280;66719;51.226;6.902;2024-03-23T03:48:42;100171.19;;;7.72;100.00
4836;BME280;66719;51.226;6.902;2024-03-23T03:51:10;100161.47;;;7.83;100.00
4836;BME280;66719;51.226;6.902;2024-03-23T03:53:36;100157.84;;;7.93;100.00
4836;BME280;66719;51.226;6.902;2024-03-23T03:56:02;100160.41;;;7.94;100.00
4836;BME280;66719;51.226;6.902;2024-03-23T03:58:27;100151.63;;;8.00;100.00
4836;BME280;66719;51.226;6.902;2024-03-23T04:00:53;100158.47;;;8.06;100.00
4836;BME280;66719;51.226;6.902;2024-03-23T04:03:19;100162.78;;;8.08;100.00
4836;BME280;66719;51.226;6.902;2024-03-23T04:05:54;100155.97;;;8.01;100.00
4836;BME280;66719;51.226;6.902;2024-03-23T04:08:21;100159.34;;;8.05;100.00
4836;BME280;66719;51.226;6.902;2024-03-23T04:10:46;100159.34;;;8.05;100.00
4836;BME280;66719;51.226;6.902;2024-03-23T04:13:13;100154.09;;;8.06;100.00
4836;BME280;66719;51.226;6.902;2024-03-23T04:15:39;100160.25;;;8.04;100.00
4836;BME280;66719;51.226;6.902;2024-03-23T04:18:05;100154.38;;;7.92;100.00
4836;BME280;66719;51.226;6.902;2024-03-23T04:20:31;100161.19;;;7.98;100.00
4836;BME280;66719;51.226;6.902;2024-03-23T04:22:58;100153.50;;;7.90;100.00
4836;BME280;66719;51.226;6.902;2024-03-23T04:25:24;100144.84;;;7.88;100.00
4836;BME280;66719;51.226;6.902;2024-03-23T04:27:49;100148.31;;;7.89;100.00
4836;BME280;66719;51.226;6.902;2024-03-23T04:30:15;100151.72;;;7.94;100.00
4836;BME280;66719;51.226;6.902;2024-03-23T04:32:41;100147.44;;;7.90;100.00
4836;BME280;66719;51.226;6.902;2024-03-23T04:35:07;100146.56;;;7.91;100.00
4836;BME280;66719;51.226;6.902;2024-03-23T04:37:36;100156.13;;;7.90;100.00
4836;BME280;66719;51.226;6.902;2024-03-23T04:40:02;100161.34;;;7.89;100.00
4836;BME280;66719;51.226;6.902;2024-03-23T04:42:29;100161.31;;;7.90;100.00
4836;BME280;66719;51.226;6.902;2024-03-23T04:44:55;100151.91;;;7.83;100.00
4836;BME280;66719;51.226;6.902;2024-03-23T04:47:20;100165.66;;;7.93;100.00
4836;BME280;66719;51.226;6.902;2024-03-23T04:49:46;100165.00;;;7.79;100.00
4836;BME280;66719;51.226;6.902;2024-03-23T04:52:12;100159.88;;;7.73;100.00
4836;BME280;66719;51.226;6.902;2024-03-23T04:54:38;100152.94;;;7.75;100.00
4836;BME280;66719;51.226;6.902;2024-03-23T04:57:06;100161.72;;;7.68;100.00
4836;BME280;66719;51.226;6.902;2024-03-23T04:59:31;100158.50;;;7.52;100.00
4836;BME280;66719;51.226;6.902;2024-03-23T05:01:57;100154.31;;;7.42;100.00
4836;BME280;66719;51.226;6.902;2024-03-23T05:04:23;100154.22;;;7.48;100.00
4836;BME280;66719;51.226;6.902;2024-03-23T05:06:48;100157.56;;;7.56;100.00
4836;BME280;66719;51.226;6.902;2024-03-23T05:09:14;100155.22;;;7.39;100.00
4836;BME280;66719;51.226;6.902;2024-03-23T05:11:40;100155.22;;;7.37;100.00
4836;BME280;66719;51.226;6.902;2024-03-23T05:14:07;100151.75;;;7.37;100.00
4836;BME280;66719;51.226;6.902;2024-03-23T05:16:33;100166.41;;;7.44;100.00
4836;BME280;66719;51.226;6.902;2024-03-23T05:18:59;100168.44;;;7.25;100.00
4836;BME280;66719;51.226;6.902;2024-03-23T05:21:25;100172.09;;;7.11;100.00
4836;BME280;66719;51.226;6.902;2024-03-23T05:23:50;100167.00;;;7.04;100.00
4836;BME280;66719;51.226;6.902;2024-03-23T05:26:17;100171.06;;;7.24;100.00
4836;BME280;66719;51.226;6.902;2024-03-23T05:28:42;100171.00;;;7.30;100.00
4836;BME280;66719;51.226;6.902;2024-03-23T05:31:09;100167.53;;;7.26;100.00
4836;BME280;66719;51.226;6.902;2024-03-23T05:33:38;100172.88;;;7.17;100.00
4836;BME280;66719;51.226;6.902;2024-03-23T05:36:04;100166.75;;;7.20;100.00
4836;BME280;66719;51.226;6.902;2024-03-23T05:38:30;100168.47;;;7.21;100.00
4836;BME280;66719;51.226;6.902;2024-03-23T05:41:00;100174.81;;;7.03;100.00
4836;BME280;66719;51.226;6.902;2024-03-23T05:43:26;100166.13;;;7.02;100.00
4836;BME280;66719;51.226;6.902;2024-03-23T05:45:59;100172.06;;;7.15;100.00
4836;BME280;66719;51.226;6.902;2024-03-23T05:48:26;100177.16;;;7.23;100.00
4836;BME280;66719;51.226;6.902;2024-03-23T05:50:52;100178.06;;;7.19;100.00
4836;BME280;66719;51.226;6.902;2024-03-23T05:53:18;100174.63;;;7.17;100.00
4836;BME280;66719;51.226;6.902;2024-03-23T05:55:46;100166.81;;;7.17;100.00
4836;BME280;66719;51.226;6.902;2024-03-23T05:58:15;100167.69;;;7.16;100.00
4836;BME280;66719;51.226;6.902;2024-03-23T06:00:40;100166.81;;;7.17;100.00
4836;BME280;66719;51.226;6.902;2024-03-23T06:03:07;100170.09;;;7.29;100.00
4836;BME280;66719;51.226;6.902;2024-03-23T06:05:32;100177.06;;;7.27;100.00
4836;BME280;66719;51.226;6.902;2024-03-23T06:07:58;100186.81;;;7.15;100.00
4836;BME280;66719;51.226;6.902;2024-03-23T06:10:24;100180.84;;;7.06;100.00
4836;BME280;66719;51.226;6.902;2024-03-23T06:12:49;100178.25;;;7.03;100.00
4836;BME280;66719;51.226;6.902;2024-03-23T06:15:18;100184.34;;;7.02;100.00
4836;BME280;66719;51.226;6.902;2024-03-23T06:17:44;100189.41;;;7.15;100.00
4836;BME280;66719;51.226;6.902;2024-03-23T06:20:10;100200.72;;;7.11;100.00
4836;BME280;66719;51.226;6.902;2024-03-23T06:22:36;100197.25;;;7.12;100.00
4836;BME280;66719;51.226;6.902;2024-03-23T06:25:02;100197.22;;;7.15;100.00
4836;BME280;66719;51.226;6.902;2024-03-23T06:27:28;100186.63;;;7.27;100.00
4836;BME280;66719;51.226;6.902;2024-03-23T06:29:53;100195.44;;;7.18;100.00
4836;BME280;66719;51.226;6.902;2024-03-23T06:32:20;100194.63;;;7.15;100.00
4836;BME280;66719;51.226;6.902;2024-03-23T06:34:46;100187.75;;;7.09;100.00
4836;BME280;66719;51.226;6.902;2024-03-23T06:37:12;100188.47;;;7.22;100.00
4836;BME280;66719;51.226;6.902;2024-03-23T06:39:38;100184.97;;;7.23;100.00
4836;BME280;66719;51.226;6.902;2024-03-23T06:42:04;100191.84;;;7.27;100.00
4836;BME280;66719;51.226;6.902;2024-03-23T06:44:30;100192.03;;;7.15;100.00
4836;BME280;66719;51.226;6.902;2024-03-23T06:46:56;100194.56;;;7.18;100.00
4836;BME280;66719;51.226;6.902;2024-03-23T06:49:22;100194.53;;;7.22;100.00
4836;BME280;66719;51.226;6.902;2024-03-23T06:51:48;100194.44;;;7.27;100.00
4836;BME280;66719;51.226;6.902;2024-03-23T06:54:14;100199.63;;;7.30;100.00
4836;BME280;66719;51.226;6.902;2024-03-23T06:56:40;100201.25;;;7.37;100.00
4836;BME280;66719;51.226;6.902;2024-03-23T06:59:06;100203.97;;;7.28;100.00
4836;BME280;66719;51.226;6.902;2024-03-23T07:01:32;100205.53;;;7.41;100.00
4836;BME280;66719;51.226;6.902;2024-03-23T07:03:57;100210.75;;;7.41;100.00
4836;BME280;66719;51.226;6.902;2024-03-23T07:06:23;100206.56;;;7.31;100.00
4836;BME280;66719;51.226;6.902;2024-03-23T07:08:49;100204.09;;;7.19;100.00
4836;BME280;66719;51.226;6.902;2024-03-23T07:11:22;100206.44;;;7.37;100.00
4836;BME280;66719;51.226;6.902;2024-03-23T07:13:51;100213.28;;;7.46;100.00
4836;BME280;66719;51.226;6.902;2024-03-23T07:16:17;100209.03;;;7.40;100.00
4836;BME280;66719;51.226;6.902;2024-03-23T07:18:43;100203.63;;;7.52;100.00
4836;BME280;66719;51.226;6.902;2024-03-23T07:21:09;100203.75;;;7.45;100.00
4836;BME280;66719;51.226;6.902;2024-03-23T07:23:35;100200.13;;;7.53;100.00
4836;BME280;66719;51.226;6.902;2024-03-23T07:26:02;100203.88;;;7.35;100.00
4836;BME280;66719;51.226;6.902;2024-03-23T07:28:28;100203.91;;;7.32;100.00
4836;BME280;66719;51.226;6.902;2024-03-23T07:31:07;100210.69;;;7.44;100.00
4836;BME280;66719;51.226;6.902;2024-03-23T07:33:37;100213.41;;;7.36;100.00
4836;BME280;66719;51.226;6.902;2024-03-23T07:36:04;100199.25;;;7.56;100.00
4836;BME280;66719;51.226;6.902;2024-03-23T07:38:31;100203.63;;;7.52;100.00
4836;BME280;66719;51.226;6.902;2024-03-23T07:41:10;100208.03;;;7.49;100.00
4836;BME280;66719;51.226;6.902;2024-03-23T07:43:37;100210.53;;;7.56;100.00
4836;BME280;66719;51.226;6.902;2024-03-23T07:46:03;100212.25;;;7.57;100.00
4836;BME280;66719;51.226;6.902;2024-03-23T07:48:30;100208.00;;;7.50;100.00
4836;BME280;66719;51.226;6.902;2024-03-23T07:51:09;100212.28;;;7.56;100.00
4836;BME280;66719;51.226;6.902;2024-03-23T07:53:36;100207.91;;;7.55;100.00
4836;BME280;66719;51.226;6.902;2024-03-23T07:58:29;100215.59;;;7.65;100.00
4836;BME280;66719;51.226;6.902;2024-03-23T08:00:55;100232.31;;;7.51;100.00
4836;BME280;66719;51.226;6.902;2024-03-23T08:03:22;100214.91;;;7.53;100.00
4836;BME280;66719;51.226;6.902;2024-03-23T08:05:48;100209.50;;;7.67;100.00
4836;BME280;66719;51.226;6.902;2024-03-23T08:08:14;100217.22;;;7.73;100.00
4836;BME280;66719;51.226;6.902;2024-03-23T08:10:50;100209.38;;;7.76;100.00
4836;BME280;66719;51.226;6.902;2024-03-23T08:13:17;100212.00;;;7.73;100.00
4836;BME280;66719;51.226;6.902;2024-03-23T08:15:43;100209.28;;;7.80;100.00
4836;BME280;66719;51.226;6.902;2024-03-23T08:18:12;100215.22;;;7.88;100.00
4836;BME280;66719;51.226;6.902;2024-03-23T08:20:37;100205.63;;;7.92;100.00
4836;BME280;66719;51.226;6.902;2024-03-23T08:23:05;100209.78;;;8.04;100.00
4836;BME280;66719;51.226;6.902;2024-03-23T08:25:31;100200.94;;;8.12;100.00
4836;BME280;66719;51.226;6.902;2024-03-23T08:27:58;100215.78;;;8.09;100.00
4836;BME280;66719;51.226;6.902;2024-03-23T08:30:23;100214.88;;;8.11;100.00
4836;BME280;66719;51.226;6.902;2024-03-23T08:32:49;100206.94;;;8.16;100.00
4836;BME280;66719;51.226;6.902;2024-03-23T08:35:15;100214.59;;;8.27;100.00
4836;BME280;66719;51.226;6.902;2024-03-23T08:37:41;100214.69;;;8.22;100.00
4836;BME280;66719;51.226;6.902;2024-03-23T08:40:06;100206.75;;;8.28;100.00
4836;BME280;66719;51.226;6.902;2024-03-23T08:42:34;100207.47;;;8.38;100.00
4836;BME280;66719;51.226;6.902;2024-03-23T08:45:00;100233.66;;;8.30;100.00
4836;BME280;66719;51.226;6.902;2024-03-23T08:47:25;100215.28;;;8.39;100.00
4836;BME280;66719;51.226;6.902;2024-03-23T08:49:51;100217.97;;;8.32;100.00
4836;BME280;66719;51.226;6.902;2024-03-23T08:52:17;100208.38;;;8.37;100.00
4836;BME280;66719;51.226;6.902;2024-03-23T08:54:42;100207.31;;;8.47;100.00
4836;BME280;66719;51.226;6.902;2024-03-23T08:57:08;100202.78;;;8.57;100.00
4836;BME280;66719;51.226;6.902;2024-03-23T08:59:34;100231.44;;;8.58;100.00
4836;BME280;66719;51.226;6.902;2024-03-23T09:02:00;100216.00;;;8.47;100.00
4836;BME280;66719;51.226;6.902;2024-03-23T09:04:26;100224.03;;;8.37;100.00
4836;BME280;66719;51.226;6.902;2024-03-23T09:06:51;100220.44;;;8.41;100.00
4836;BME280;66719;51.226;6.902;2024-03-23T09:09:17;100230.13;;;8.36;100.00
4836;BME280;66719;51.226;6.902;2024-03-23T09:11:43;100214.41;;;8.39;100.00
4836;BME280;66719;51.226;6.902;2024-03-23T09:14:09;100209.22;;;8.37;100.00
4836;BME280;66719;51.226;6.902;2024-03-23T09:16:34;100219.59;;;8.40;100.00
4836;BME280;66719;51.226;6.902;2024-03-23T09:19:00;100237.81;;;8.43;100.00
4836;BME280;66719;51.226;6.902;2024-03-23T09:21:26;100223.06;;;8.41;100.00
4836;BME280;66719;51.226;6.902;2024-03-23T09:23:52;100231.03;;;8.35;100.00
4836;BME280;66719;51.226;6.902;2024-03-23T09:26:17;100225.06;;;8.23;100.00
4836;BME280;66719;51.226;6.902;2024-03-23T09:28:43;100219.91;;;8.20;100.00
4836;BME280;66719;51.226;6.902;2024-03-23T09:31:09;100227.06;;;8.08;100.00
4836;BME280;66719;51.226;6.902;2024-03-23T09:33:40;100234.09;;;8.04;100.00
4836;BME280;66719;51.226;6.902;2024-03-23T09:36:07;100220.13;;;8.08;100.00
4836;BME280;66719;51.226;6.902;2024-03-23T09:38:33;100222.78;;;8.05;100.00
4836;BME280;66719;51.226;6.902;2024-03-23T09:40:59;100217.44;;;8.13;100.00
4836;BME280;66719;51.226;6.902;2024-03-23T09:43:26;100216.50;;;8.18;100.00
4836;BME280;66719;51.226;6.902;2024-03-23T09:45:52;100209.56;;;8.16;100.00
4836;BME280;66719;51.226;6.902;2024-03-23T09:48:18;100213.88;;;8.18;100.00
4836;BME280;66719;51.226;6.902;2024-03-23T09:50:45;100231.28;;;8.16;100.00
4836;BME280;66719;51.226;6.902;2024-03-23T09:53:13;100214.47;;;8.34;100.00
4836;BME280;66719;51.226;6.902;2024-03-23T09:55:41;100204.78;;;8.42;100.00
4836;BME280;66719;51.226;6.902;2024-03-23T09:58:07;100208.31;;;8.40;100.00
4836;BME280;66719;51.226;6.902;2024-03-23T10:00:37;100213.59;;;8.37;100.00
4836;BME280;66719;51.226;6.902;2024-03-23T10:03:04;100204.44;;;8.11;100.00
4836;BME280;66719;51.226;6.902;2024-03-23T10:05:32;100228.13;;;7.98;100.00
4836;BME280;66719;51.226;6.902;2024-03-23T10:08:00;100209.16;;;7.88;100.00
4836;BME280;66719;51.226;6.902;2024-03-23T10:10:26;100203.75;;;7.99;100.00
4836;BME280;66719;51.226;6.902;2024-03-23T10:12:52;100195.69;;;8.14;100.00
4836;BME280;66719;51.226;6.902;2024-03-23T10:15:19;100193.75;;;8.27;100.00
4836;BME280;66719;51.226;6.902;2024-03-23T10:17:46;100198.06;;;8.28;100.00
4836;BME280;66719;51.226;6.902;2024-03-23T10:20:12;100192.66;;;8.40;100.00
4836;BME280;66719;51.226;6.902;2024-03-23T10:22:38;100191.81;;;8.38;100.00
4836;BME280;66719;51.226;6.902;2024-03-23T10:25:09;100196.22;;;8.33;100.00
4836;BME280;66719;51.226;6.902;2024-03-23T10:27:34;100190.16;;;8.35;100.00
4836;BME280;66719;51.226;6.902;2024-03-23T10:30:11;100184.53;;;8.55;100.00
4836;BME280;66719;51.226;6.902;2024-03-23T10:32:38;100201.75;;;8.65;100.00
4836;BME280;66719;51.226;6.902;2024-03-23T10:35:14;100200.09;;;8.60;100.00
4836;BME280;66719;51.226;6.902;2024-03-23T10:37:41;100229.97;;;8.45;100.00
4836;BME280;66719;51.226;6.902;2024-03-23T10:40:09;100241.94;;;8.03;100.00
4836;BME280;66719;51.226;6.902;2024-03-23T10:42:37;100263.69;;;7.42;100.00
4836;BME280;66719;51.226;6.902;2024-03-23T10:45:04;100297.47;;;6.71;100.00
4836;BME280;66719;51.226;6.902;2024-03-23T10:47:31;100285.09;;;6.01;100.00
4836;BME280;66719;51.226;6.902;2024-03-23T10:49:58;100278.38;;;5.61;100.00
4836;BME280;66719;51.226;6.902;2024-03-23T10:52:24;100270.59;;;5.58;100.00
4836;BME280;66719;51.226;6.902;2024-03-23T10:54:53;100259.31;;;5.62;100.00
4836;BME280;66719;51.226;6.902;2024-03-23T10:57:25;100271.34;;;5.79;100.00
4836;BME280;66719;51.226;6.902;2024-03-23T10:59:52;100268.66;;;5.89;100.00
4836;BME280;66719;51.226;6.902;2024-03-23T11:02:20;100266.91;;;5.98;100.00
4836;BME280;66719;51.226;6.902;2024-03-23T11:04:46;100278.91;;;6.12;100.00
4836;BME280;66719;51.226;6.902;2024-03-23T11:09:55;100281.34;;;6.35;100.00
4836;BME280;66719;51.226;6.902;2024-03-23T11:17:24;100257.78;;;6.50;100.00
4836;BME280;66719;51.226;6.902;2024-03-23T11:25:20;100258.38;;;6.77;100.00
4836;BME280;66719;51.226;6.902;2024-03-23T11:27:56;100254.81;;;6.87;100.00
4836;BME280;66719;51.226;6.902;2024-03-23T11:30:24;100257.38;;;6.90;100.00
4836;BME280;66719;51.226;6.902;2024-03-23T11:32:57;100244.25;;;6.99;100.00
4836;BME280;66719;51.226;6.902;2024-03-23T11:35:29;100245.06;;;7.03;100.00
4836;BME280;66719;51.226;6.902;2024-03-23T11:40:28;100235.66;;;6.93;100.00
4836;BME280;66719;51.226;6.902;2024-03-23T11:43:05;100228.59;;;7.04;100.00
4836;BME280;66719;51.226;6.902;2024-03-23T11:45:50;100229.34;;;7.12;100.00
4836;BME280;66719;51.226;6.902;2024-03-23T11:48:22;100231.72;;;7.30;100.00
4836;BME280;66719;51.226;6.902;2024-03-23T11:50:49;100231.72;;;7.30;100.00
4836;BME280;66719;51.226;6.902;2024-03-23T11:53:20;100233.34;;;7.37;100.00
4836;BME280;66719;51.226;6.902;2024-03-23T11:55:47;100231.41;;;7.53;100.00
4836;BME280;66719;51.226;6.902;2024-03-23T11:58:13;100222.13;;;7.92;100.00
4836;BME280;66719;51.226;6.902;2024-03-23T12:00:39;100257.69;;;7.97;100.00
4836;BME280;66719;51.226;6.902;2024-03-23T12:03:05;100286.19;;;7.46;100.00
4836;BME280;66719;51.226;6.902;2024-03-23T12:05:32;100272.50;;;6.53;100.00
4836;BME280;66719;51.226;6.902;2024-03-23T12:08:20;100226.84;;;6.26;100.00
4836;BME280;66719;51.226;6.902;2024-03-23T12:10:48;100231.09;;;6.32;100.00
4836;BME280;66719;51.226;6.902;2024-03-23T12:13:23;100236.22;;;6.41;100.00
4836;BME280;66719;51.226;6.902;2024-03-23T12:15:51;100243.91;;;6.50;100.00
4836;BME280;66719;51.226;6.902;2024-03-23T12:18:17;100243.06;;;6.48;100.00
4836;BME280;66719;51.226;6.902;2024-03-23T12:20:43;100242.00;;;6.67;100.00
4836;BME280;66719;51.226;6.902;2024-03-23T12:23:12;100247.13;;;6.75;100.00
4836;BME280;66719;51.226;6.902;2024-03-23T12:25:39;100244.56;;;6.72;100.00
4836;BME280;66719;51.226;6.902;2024-03-23T12:28:06;100247.97;;;6.80;100.00
4836;BME280;66719;51.226;6.902;2024-03-23T12:30:36;100244.41;;;6.86;100.00
4836;BME280;66719;51.226;6.902;2024-03-23T12:33:04;100249.34;;;7.08;100.00
4836;BME280;66719;51.226;6.902;2024-03-23T12:35:30;100240.72;;;7.05;100.00
4836;BME280;66719;51.226;6.902;2024-03-23T12:37:55;100240.53;;;7.19;100.00
4836;BME280;66719;51.226;6.902;2024-03-23T12:40:21;100234.81;;;7.58;100.00
4836;BME280;66719;51.226;6.902;2024-03-23T12:42:47;100236.47;;;7.62;100.00
4836;BME280;66719;51.226;6.902;2024-03-23T12:45:13;100242.53;;;7.64;100.00
4836;BME280;66719;51.226;6.902;2024-03-23T12:47:38;100239.97;;;7.61;100.00
4836;BME280;66719;51.226;6.902;2024-03-23T12:50:04;100246.47;;;7.31;100.00
4836;BME280;66719;51.226;6.902;2024-03-23T12:52:32;100240.53;;;7.22;100.00
4836;BME280;66719;51.226;6.902;2024-03-23T12:54:57;100225.00;;;7.14;100.00
4836;BME280;66719;51.226;6.902;2024-03-23T12:57:24;100238.69;;;7.27;100.00
4836;BME280;66719;51.226;6.902;2024-03-23T12:59:56;100228.09;;;7.42;100.00
4836;BME280;66719;51.226;6.902;2024-03-23T13:02:24;100225.63;;;7.31;100.00
4836;BME280;66719;51.226;6.902;2024-03-23T13:04:51;100217.53;;;7.51;100.00
4836;BME280;66719;51.226;6.902;2024-03-23T13:07:18;100221.53;;;7.75;100.00
4836;BME280;66719;51.226;6.902;2024-03-23T13:09:44;100211.44;;;8.09;100.00
4836;BME280;66719;51.226;6.902;2024-03-23T13:12:10;100209.72;;;8.08;100.00
4836;BME280;66719;51.226;6.902;2024-03-23T13:14:38;100208.31;;;8.85;100.00
4836;BME280;66719;51.226;6.902;2024-03-23T13:17:04;100203.66;;;9.41;100.00
4836;BME280;66719;51.226;6.902;2024-03-23T13:19:30;100213.97;;;9.47;100.00
4836;BME280;66719;51.226;6.902;2024-03-23T13:22:00;100209.69;;;8.61;100.00
4836;BME280;66719;51.226;6.902;2024-03-23T13:24:29;100246.50;;;7.88;100.00
4836;BME280;66719;51.226;6.902;2024-03-23T13:26:56;100259.81;;;7.05;100.00
4836;BME280;66719;51.226;6.902;2024-03-23T13:29:23;100241.03;;;6.76;100.00
4836;BME280;66719;51.226;6.902;2024-03-23T13:31:50;100219.63;;;6.51;100.00
4836;BME280;66719;51.226;6.902;2024-03-23T13:34:16;100225.78;;;6.42;100.00
4836;BME280;66719;51.226;6.902;2024-03-23T13:36:43;100204.94;;;6.48;100.00
4836;BME280;66719;51.226;6.902;2024-03-23T13:39:09;100202.06;;;6.73;100.00
4836;BME280;66719;51.226;6.902;2024-03-23T13:41:45;100207.25;;;7.42;100.00
4836;BME280;66719;51.226;6.902;2024-03-23T13:44:12;100189.03;;;7.96;100.00
4836;BME280;66719;51.226;6.902;2024-03-23T13:46:39;100181.88;;;8.58;100.00
4836;BME280;66719;51.226;6.902;2024-03-23T13:49:06;100189.16;;;8.87;100.00
4836;BME280;66719;51.226;6.902;2024-03-23T13:51:32;100189.25;;;8.81;100.00
4836;BME280;66719;51.226;6.902;2024-03-23T13:53:58;100175.91;;;8.96;100.00
4836;BME280;66719;51.226;6.902;2024-03-23T13:56:30;100167.47;;;8.39;100.00
4836;BME280;66719;51.226;6.902;2024-03-23T13:58:56;100177.53;;;8.08;100.00
4836;BME280;66719;51.226;6.902;2024-03-23T14:01:22;100180.69;;;7.76;100.00
4836;BME280;66719;51.226;6.902;2024-03-23T14:03:48;100192.03;;;7.72;100.00
4836;BME280;66719;51.226;6.902;2024-03-23T14:06:13;100204.25;;;7.70;100.00
4836;BME280;66719;51.226;6.902;2024-03-23T14:08:39;100184.22;;;7.73;100.00